Time;durP1;ratioP1;P1;durP2;ratioP2;P2;SDS_P1;SDS_P2;PMS_P1;PMS_P2;Temp;Humidity;BMP_temperature;BMP_pressure;BME280_temperature;BME280_humidity;BME280_pressure;Samples;Min_cycle;Max_cycle;Signal;HPM_P1;HPM_P2
2022/07/05 00:01:51;;;;;;;7.32;4.60;;;;;;;15.56;94.45;102090.66;4990114;28;20048;-45
2022/07/05 00:04:16;;;;;;;6.30;4.57;;;;;;;15.53;94.20;102088.28;4993717;28;20120;-48
2022/07/05 00:07:17;;;;;;;8.57;4.90;;;;;;;15.46;95.34;102088.09;4984812;28;20053;-48
2022/07/05 00:09:27;;;;;;;7.32;4.53;;;;;;;15.41;96.57;102087.72;4981459;28;20483;-49
2022/07/05 00:11:52;;;;;;;9.70;4.68;;;;;;;15.39;96.28;102087.06;4994919;28;20030;-46
2022/07/05 00:14:19;;;;;;;7.47;4.70;;;;;;;15.32;96.76;102086.03;4995269;28;20053;-48
2022/07/05 00:16:44;;;;;;;6.93;4.72;;;;;;;15.26;97.22;102088.34;4988529;28;20505;-49
2022/07/05 00:19:09;;;;;;;7.90;5.10;;;;;;;15.23;97.08;102087.84;4995615;28;20026;-49
2022/07/05 00:21:34;;;;;;;9.13;4.88;;;;;;;15.19;97.99;102081.94;4991412;28;20112;-49
2022/07/05 00:24:00;;;;;;;7.72;4.82;;;;;;;15.15;98.96;102080.56;4990836;28;20034;-47
2022/07/05 00:26:25;;;;;;;7.53;4.93;;;;;;;15.14;98.79;102078.03;4995080;28;20524;-49
2022/07/05 00:28:50;;;;;;;8.70;4.55;;;;;;;15.09;100.00;102075.84;4996136;28;20335;-49
2022/07/05 00:31:15;;;;;;;7.15;4.63;;;;;;;15.01;100.00;102071.25;4995563;28;20018;-50
2022/07/05 00:33:41;;;;;;;8.43;5.38;;;;;;;15.00;100.00;102083.00;4992645;28;20092;-50
2022/07/05 00:36:06;;;;;;;7.55;4.55;;;;;;;15.04;100.00;102076.31;4994904;28;20038;-49
2022/07/05 00:38:31;;;;;;;9.23;5.18;;;;;;;14.99;100.00;102077.81;4992653;28;20387;-44
2022/07/05 00:40:57;;;;;;;7.72;4.90;;;;;;;14.97;100.00;102077.97;4991663;28;20227;-46
2022/07/05 00:43:22;;;;;;;9.85;5.00;;;;;;;14.93;100.00;102079.28;4993828;28;20026;-47
2022/07/05 00:45:48;;;;;;;8.68;4.70;;;;;;;14.90;100.00;102080.44;4991201;28;20026;-49
2022/07/05 00:48:13;;;;;;;6.88;4.85;;;;;;;14.88;100.00;102076.22;4995574;28;20326;-45
2022/07/05 00:50:39;;;;;;;6.50;4.70;;;;;;;14.80;100.00;102074.34;4990736;28;20516;-46
2022/07/05 00:53:04;;;;;;;6.82;5.30;;;;;;;14.71;100.00;102067.19;4993802;28;20061;-45
2022/07/05 00:55:29;;;;;;;9.23;5.45;;;;;;;14.59;100.00;102063.94;4995589;28;20029;-50
2022/07/05 00:57:55;;;;;;;7.35;5.28;;;;;;;14.53;100.00;102075.31;4996173;28;20026;-48
2022/07/05 01:00:20;;;;;;;11.77;5.32;;;;;;;14.38;100.00;102075.00;4996809;28;20030;-47
2022/07/05 01:02:46;;;;;;;9.38;5.47;;;;;;;14.28;100.00;102076.94;4995063;28;20030;-45
2022/07/05 01:05:11;;;;;;;8.48;4.72;;;;;;;14.27;100.00;102083.31;4996674;28;20036;-45
2022/07/05 01:07:36;;;;;;;6.80;4.90;;;;;;;14.28;100.00;102083.16;4989118;28;20061;-48
2022/07/05 01:10:03;;;;;;;7.18;4.57;;;;;;;14.27;100.00;102086.00;4998964;28;20040;-48
2022/07/05 01:12:28;;;;;;;7.38;4.32;;;;;;;14.22;100.00;102082.94;4999094;28;20030;-49
2022/07/05 01:14:56;;;;;;;11.05;4.38;;;;;;;14.15;100.00;102074.66;4980778;28;20384;-46
2022/07/05 01:17:22;;;;;;;6.75;4.40;;;;;;;14.18;100.00;102080.56;4989986;28;20520;-47
2022/07/05 01:19:48;;;;;;;6.10;4.72;;;;;;;14.16;100.00;102079.88;4999314;28;20365;-46
2022/07/05 01:22:19;;;;;;;8.15;4.80;;;;;;;14.18;100.00;102071.66;4995295;28;20018;-48
2022/07/05 01:24:49;;;;;;;9.32;4.90;;;;;;;14.21;100.00;102079.41;4985099;28;20076;-48
2022/07/05 01:27:17;;;;;;;7.13;4.75;;;;;;;14.12;100.00;102075.81;4995098;28;20052;-47
2022/07/05 01:29:43;;;;;;;6.30;4.63;;;;;;;14.08;100.00;102074.41;4997453;28;20476;-45
2022/07/05 01:32:08;;;;;;;7.18;4.90;;;;;;;14.11;100.00;102073.28;4998034;28;20029;-50
2022/07/05 01:34:37;;;;;;;8.27;5.00;;;;;;;14.14;100.00;102081.88;4998812;28;20017;-45
2022/07/05 01:37:03;;;;;;;10.02;5.57;;;;;;;14.18;100.00;102075.19;4997350;28;20018;-47
2022/07/05 01:39:30;;;;;;;9.88;5.15;;;;;;;14.21;100.00;102073.19;4998741;28;20123;-47
2022/07/05 01:41:55;;;;;;;10.77;5.13;;;;;;;14.17;100.00;102072.63;4998098;28;20109;-44
2022/07/05 01:44:21;;;;;;;6.93;5.20;;;;;;;14.16;100.00;102074.50;4997994;28;20446;-47
2022/07/05 01:46:50;;;;;;;11.93;5.20;;;;;;;14.17;100.00;102069.94;4992065;28;20210;-45
2022/07/05 01:49:17;;;;;;;7.63;5.20;;;;;;;14.16;100.00;102069.13;4998684;28;20099;-48
2022/07/05 01:51:53;;;;;;;9.82;5.60;;;;;;;14.14;100.00;102071.13;4989853;28;20401;-45
2022/07/05 01:54:19;;;;;;;8.85;5.40;;;;;;;13.99;100.00;102068.13;4998007;28;20044;-50
2022/07/05 01:56:44;;;;;;;7.10;5.38;;;;;;;14.01;100.00;102073.34;4963966;28;20030;-46
2022/07/05 01:59:09;;;;;;;7.63;5.20;;;;;;;13.91;100.00;102076.09;4997345;28;20653;-48
2022/07/05 02:01:37;;;;;;;7.82;5.03;;;;;;;13.84;100.00;102079.56;4998216;28;20116;-46
2022/07/05 02:04:04;;;;;;;6.10;4.78;;;;;;;13.73;100.00;102070.75;4998070;28;20029;-46
2022/07/05 02:06:31;;;;;;;10.00;5.50;;;;;;;13.64;100.00;102071.63;4992019;28;20528;-48
2022/07/05 02:08:56;;;;;;;9.57;5.15;;;;;;;13.63;100.00;102072.63;4992710;28;20123;-46
2022/07/05 02:11:21;;;;;;;8.52;5.38;;;;;;;13.57;100.00;102068.69;4992870;28;20054;-48
2022/07/05 02:13:47;;;;;;;10.20;6.15;;;;;;;13.55;100.00;102070.69;4989894;28;20034;-47
2022/07/05 02:16:12;;;;;;;13.93;5.80;;;;;;;13.57;100.00;102079.44;4997229;28;20056;-45
2022/07/05 02:18:37;;;;;;;8.65;6.43;;;;;;;13.50;100.00;102083.72;4998010;28;20025;-46
2022/07/05 02:21:03;;;;;;;8.23;5.90;;;;;;;13.37;100.00;102076.03;4997422;28;20216;-46
2022/07/05 02:23:28;;;;;;;7.13;6.10;;;;;;;13.25;100.00;102077.19;4996227;28;20436;-45
2022/07/05 02:25:53;;;;;;;7.72;6.00;;;;;;;13.22;100.00;102075.66;5005504;28;20107;-47
2022/07/05 02:28:19;;;;;;;8.85;6.25;;;;;;;13.28;100.00;102076.88;4996779;28;20682;-45
2022/07/05 02:30:44;;;;;;;10.27;6.60;;;;;;;13.30;100.00;102076.75;5015699;28;20025;-48
2022/07/05 02:33:09;;;;;;;10.38;6.20;;;;;;;13.31;100.00;102065.03;5004120;28;20026;-49
2022/07/05 02:35:35;;;;;;;13.63;6.93;;;;;;;13.30;100.00;102066.84;5006933;28;20040;-47
2022/07/05 02:38:00;;;;;;;8.68;6.65;;;;;;;13.35;100.00;102066.44;5015734;28;20025;-46
2022/07/05 02:40:25;;;;;;;11.48;6.70;;;;;;;13.32;100.00;102075.63;5016672;28;20177;-46
2022/07/05 02:42:51;;;;;;;11.05;6.57;;;;;;;13.24;100.00;102078.19;5017114;28;20461;-44
2022/07/05 02:45:16;;;;;;;10.20;6.28;;;;;;;13.26;100.00;102081.56;4998641;28;20486;-44
2022/07/05 02:47:41;;;;;;;8.27;6.32;;;;;;;13.33;100.00;102088.03;5016914;28;20034;-45
2022/07/05 02:50:08;;;;;;;13.90;6.70;;;;;;;13.36;100.00;102087.75;5007539;28;20363;-46
2022/07/05 02:52:34;;;;;;;12.38;6.57;;;;;;;13.32;100.00;102091.72;4990610;28;20251;-45
2022/07/05 02:55:00;;;;;;;12.23;6.88;;;;;;;13.31;100.00;102087.31;5009302;28;20037;-46
2022/07/05 02:57:25;;;;;;;11.07;6.80;;;;;;;13.32;100.00;102086.34;4992738;28;20041;-45
2022/07/05 02:59:55;;;;;;;11.02;7.25;;;;;;;13.34;100.00;102086.19;5006575;28;20086;-46
2022/07/05 03:02:21;;;;;;;11.05;6.97;;;;;;;13.33;100.00;102092.56;5016224;28;20464;-43
2022/07/05 03:04:46;;;;;;;12.32;6.63;;;;;;;13.34;100.00;102096.94;5017193;28;20044;-44
2022/07/05 03:07:12;;;;;;;12.40;6.80;;;;;;;13.38;100.00;102099.19;5014367;28;20029;-45
2022/07/05 03:09:37;;;;;;;9.73;6.22;;;;;;;13.41;100.00;102098.88;5016145;28;20033;-47
2022/07/05 03:12:03;;;;;;;10.93;6.50;;;;;;;13.41;100.00;102095.38;4989982;28;20089;-44
2022/07/05 03:14:28;;;;;;;19.77;7.00;;;;;;;13.37;100.00;102094.81;5014818;28;20033;-46
2022/07/05 03:16:53;;;;;;;13.52;6.55;;;;;;;13.34;100.00;102097.81;5001748;28;20022;-44
2022/07/05 03:19:19;;;;;;;13.77;6.78;;;;;;;13.38;100.00;102096.50;4979518;28;20037;-46
2022/07/05 03:21:45;;;;;;;12.68;6.97;;;;;;;13.28;100.00;102095.66;5014784;28;20326;-45
2022/07/05 03:24:10;;;;;;;9.43;6.25;;;;;;;13.23;100.00;102109.50;5015043;28;20056;-46
2022/07/05 03:26:35;;;;;;;11.68;6.60;;;;;;;13.19;100.00;102107.31;5015883;28;20029;-46
2022/07/05 03:29:00;;;;;;;12.85;6.88;;;;;;;13.14;100.00;102098.84;5016941;28;20167;-45
2022/07/05 03:31:26;;;;;;;14.18;7.28;;;;;;;13.15;100.00;102097.84;5015384;28;20028;-45
2022/07/05 03:33:51;;;;;;;13.85;7.47;;;;;;;13.22;100.00;102098.94;5007778;28;20460;-45
2022/07/05 03:36:16;;;;;;;15.63;7.72;;;;;;;13.30;100.00;102104.41;5014925;28;20472;-45
2022/07/05 03:38:42;;;;;;;12.05;7.55;;;;;;;13.29;100.00;102100.06;5015445;28;20028;-47
2022/07/05 03:41:07;;;;;;;10.98;7.53;;;;;;;13.35;100.00;102102.16;5007377;28;20033;-47
2022/07/05 03:43:32;;;;;;;11.30;6.78;;;;;;;13.43;100.00;102104.09;5000529;28;20033;-46
2022/07/05 03:45:57;;;;;;;12.40;7.20;;;;;;;13.49;100.00;102113.41;5009730;28;20026;-46
2022/07/05 03:48:23;;;;;;;11.48;7.25;;;;;;;13.58;100.00;102113.34;4993704;28;20025;-46
2022/07/05 03:50:48;;;;;;;14.55;8.38;;;;;;;13.61;100.00;102110.38;5011314;28;20040;-47
2022/07/05 03:53:15;;;;;;;10.43;7.18;;;;;;;13.66;100.00;102112.59;4991203;28;20420;-46
2022/07/05 03:55:40;;;;;;;12.63;7.93;;;;;;;13.66;100.00;102117.13;5015729;28;20021;-48
2022/07/05 03:58:05;;;;;;;12.65;7.93;;;;;;;13.73;100.00;102116.38;4992552;28;20028;-46
2022/07/05 04:00:31;;;;;;;13.70;7.93;;;;;;;13.68;100.00;102116.00;5013884;28;20053;-48
2022/07/05 04:02:56;;;;;;;11.10;7.88;;;;;;;13.61;100.00;102112.19;5016532;28;20033;-45
2022/07/05 04:05:22;;;;;;;9.63;7.70;;;;;;;13.56;100.00;102109.97;4991819;28;20491;-48
2022/07/05 04:07:53;;;;;;;11.18;7.82;;;;;;;13.56;100.00;102117.16;5003661;28;20033;-44
2022/07/05 04:10:19;;;;;;;12.18;7.60;;;;;;;13.65;100.00;102118.97;4994342;28;20045;-45
2022/07/05 04:12:45;;;;;;;12.30;8.00;;;;;;;13.61;100.00;102126.47;5003580;28;20103;-46
2022/07/05 04:15:11;;;;;;;11.90;7.80;;;;;;;13.60;100.00;102123.94;5015631;28;20586;-46
2022/07/05 04:17:52;;;;;;;14.73;8.65;;;;;;;13.64;100.00;102127.16;5015845;28;20017;-46
2022/07/05 04:20:21;;;;;;;13.90;8.18;;;;;;;13.71;100.00;102133.63;5016081;28;20265;-45
2022/07/05 04:22:46;;;;;;;14.55;8.23;;;;;;;13.78;100.00;102129.31;5014616;28;20096;-45
2022/07/05 04:25:21;;;;;;;13.50;8.05;;;;;;;13.88;100.00;102129.28;5011040;28;20511;-46
2022/07/05 04:27:51;;;;;;;13.90;8.38;;;;;;;13.93;100.00;102132.34;4991742;28;20360;-49
2022/07/05 04:30:18;;;;;;;14.20;8.60;;;;;;;13.98;100.00;102125.56;5011623;28;20073;-46
2022/07/05 04:32:44;;;;;;;18.88;8.68;;;;;;;14.04;100.00;102132.16;5005500;28;20272;-47
2022/07/05 04:35:10;;;;;;;10.85;8.05;;;;;;;14.14;100.00;102130.22;5019603;28;20025;-50
2022/07/05 04:37:36;;;;;;;13.15;8.52;;;;;;;14.27;100.00;102124.44;5018056;28;20463;-46
2022/07/05 04:40:04;;;;;;;14.55;8.38;;;;;;;14.40;100.00;102120.56;5019625;28;20045;-46
2022/07/05 04:42:29;;;;;;;15.95;8.30;;;;;;;14.50;100.00;102119.44;5019872;28;20472;-47
2022/07/05 04:44:54;;;;;;;15.65;9.18;;;;;;;14.54;100.00;102134.28;5019111;28;20071;-46
2022/07/05 04:47:20;;;;;;;12.40;8.27;;;;;;;14.53;100.00;102129.91;5019298;28;20377;-46
2022/07/05 04:49:45;;;;;;;10.95;8.18;;;;;;;14.58;100.00;102126.75;5011769;28;20560;-45
2022/07/05 04:52:10;;;;;;;14.10;8.43;;;;;;;14.73;100.00;102132.41;5005216;28;20029;-49
2022/07/05 04:54:36;;;;;;;12.52;8.55;;;;;;;14.80;100.00;102127.25;5010839;28;20334;-46
2022/07/05 04:57:02;;;;;;;14.48;8.57;;;;;;;14.92;100.00;102129.53;4996011;28;20481;-44
2022/07/05 04:59:27;;;;;;;16.08;8.90;;;;;;;14.96;100.00;102123.84;4999393;28;20198;-46
2022/07/05 05:01:52;;;;;;;15.50;9.15;;;;;;;14.95;100.00;102128.38;5001309;28;20576;-45
2022/07/05 05:04:17;;;;;;;13.82;8.98;;;;;;;14.93;100.00;102127.69;5019055;28;20174;-45
2022/07/05 05:06:43;;;;;;;13.73;8.65;;;;;;;14.99;100.00;102126.22;5017734;28;20029;-45
2022/07/05 05:09:08;;;;;;;14.73;8.65;;;;;;;15.04;100.00;102129.28;5018994;28;20033;-47
2022/07/05 05:11:33;;;;;;;14.27;8.43;;;;;;;15.06;100.00;102130.81;5001058;28;20260;-46
2022/07/05 05:13:59;;;;;;;20.00;9.40;;;;;;;15.08;100.00;102136.88;5005497;28;20539;-46
2022/07/05 05:16:24;;;;;;;15.80;9.35;;;;;;;15.10;100.00;102139.41;5003457;28;20030;-46
2022/07/05 05:18:49;;;;;;;15.02;9.25;;;;;;;15.14;100.00;102138.09;5001619;28;20393;-45
2022/07/05 05:21:15;;;;;;;13.95;9.65;;;;;;;15.21;100.00;102146.38;5016056;28;20267;-46
2022/07/05 05:23:40;;;;;;;18.10;9.95;;;;;;;15.21;100.00;102149.91;4997657;28;20017;-46
2022/07/05 05:26:05;;;;;;;18.08;10.10;;;;;;;15.23;100.00;102147.88;5016404;28;20045;-46
2022/07/05 05:28:31;;;;;;;20.92;10.45;;;;;;;15.32;100.00;102142.56;5019353;28;20021;-45
2022/07/05 05:30:56;;;;;;;19.85;10.48;;;;;;;15.38;100.00;102150.81;5014299;28;20167;-45
2022/07/05 05:33:21;;;;;;;15.95;10.00;;;;;;;15.42;100.00;102152.19;5003858;28;20371;-46
2022/07/05 05:35:46;;;;;;;19.08;9.75;;;;;;;15.44;100.00;102166.34;5010196;28;20037;-45
2022/07/05 05:38:12;;;;;;;16.55;10.50;;;;;;;15.47;100.00;102162.47;4994853;28;20017;-58
2022/07/05 05:40:38;;;;;;;16.95;9.90;;;;;;;15.54;100.00;102160.81;5001236;28;20029;-45
2022/07/05 05:43:03;;;;;;;17.27;10.20;;;;;;;15.63;100.00;102165.25;4997485;28;20041;-46
2022/07/05 05:45:29;;;;;;;15.55;10.63;;;;;;;15.61;100.00;102167.25;4998309;28;20060;-46
2022/07/05 05:47:57;;;;;;;19.00;11.27;;;;;;;15.51;100.00;102171.06;4997428;28;20105;-45
2022/07/05 05:50:28;;;;;;;18.02;10.63;;;;;;;15.52;100.00;102165.53;4993147;28;20080;-46
2022/07/05 05:52:54;;;;;;;17.40;10.70;;;;;;;15.56;100.00;102166.88;4992883;28;20160;-46
2022/07/05 05:55:20;;;;;;;14.88;9.95;;;;;;;15.65;100.00;102165.09;4995542;28;20025;-46
2022/07/05 05:57:47;;;;;;;15.20;10.50;;;;;;;15.72;100.00;102166.13;4987028;28;20508;-45
2022/07/05 06:00:13;;;;;;;16.48;10.40;;;;;;;15.90;100.00;102171.41;4998567;28;20385;-46
2022/07/05 06:02:39;;;;;;;14.27;9.82;;;;;;;15.98;100.00;102170.59;4992792;28;20026;-46
2022/07/05 06:05:04;;;;;;;15.05;10.27;;;;;;;16.06;100.00;102172.50;4980086;28;20121;-48
2022/07/05 06:07:30;;;;;;;16.08;10.02;;;;;;;16.09;100.00;102174.84;4996825;28;20053;-46
2022/07/05 06:09:55;;;;;;;14.93;9.35;;;;;;;16.08;100.00;102176.69;4996819;28;20071;-46
2022/07/05 06:12:20;;;;;;;15.02;9.98;;;;;;;16.08;100.00;102179.38;4979592;28;20435;-45
2022/07/05 06:14:45;;;;;;;16.55;10.25;;;;;;;16.14;100.00;102185.97;5005895;28;20032;-45
2022/07/05 06:17:11;;;;;;;17.92;10.45;;;;;;;16.20;100.00;102186.16;4989074;28;20620;-44
2022/07/05 06:19:36;;;;;;;17.35;9.60;;;;;;;16.27;100.00;102186.31;4992484;28;20057;-44
2022/07/05 06:22:02;;;;;;;14.57;9.30;;;;;;;16.31;100.00;102186.84;4987781;28;20013;-47
2022/07/05 06:24:27;;;;;;;15.18;9.63;;;;;;;16.34;100.00;102189.22;5003012;28;20042;-46
2022/07/05 06:26:52;;;;;;;15.05;9.02;;;;;;;16.42;100.00;102181.97;5008641;28;20774;-46
2022/07/05 06:29:17;;;;;;;16.20;8.80;;;;;;;16.48;100.00;102179.59;4999399;28;20353;-47
2022/07/05 06:31:43;;;;;;;13.38;8.48;;;;;;;16.46;100.00;102182.47;5000716;28;20022;-46
2022/07/05 06:34:08;;;;;;;11.82;8.35;;;;;;;16.56;100.00;102188.56;4993789;28;20048;-45
2022/07/05 06:36:33;;;;;;;12.70;9.10;;;;;;;16.54;100.00;102193.28;4989095;28;20311;-46
2022/07/05 06:38:59;;;;;;;15.93;8.98;;;;;;;16.58;100.00;102202.72;4991888;28;20017;-48
2022/07/05 06:41:24;;;;;;;15.82;9.02;;;;;;;16.60;100.00;102202.56;4994500;28;20045;-45
2022/07/05 06:43:49;;;;;;;15.20;8.88;;;;;;;16.60;100.00;102198.00;4990777;28;20037;-46
2022/07/05 06:46:14;;;;;;;16.88;9.15;;;;;;;16.58;100.00;102197.34;4988649;28;20068;-47
2022/07/05 06:48:40;;;;;;;12.75;8.55;;;;;;;16.59;100.00;102203.56;4996718;28;20053;-45
2022/07/05 06:51:06;;;;;;;16.23;8.90;;;;;;;16.63;100.00;102199.50;4993900;28;20120;-46
2022/07/05 06:53:31;;;;;;;16.10;8.73;;;;;;;16.85;100.00;102197.19;4999616;28;20021;-45
2022/07/05 06:55:56;;;;;;;12.48;8.45;;;;;;;17.04;100.00;102198.69;4996401;28;20366;-44
2022/07/05 06:58:23;;;;;;;15.73;8.40;;;;;;;17.13;100.00;102194.97;4996418;28;20014;-45
2022/07/05 07:00:48;;;;;;;14.43;10.00;;;;;;;17.06;100.00;102192.13;4996289;28;20384;-47
2022/07/05 07:03:13;;;;;;;12.63;8.27;;;;;;;17.19;99.86;102199.66;4978717;28;20036;-47
2022/07/05 07:05:39;;;;;;;11.15;7.32;;;;;;;17.37;98.59;102204.03;5007840;28;20037;-48
2022/07/05 07:10:48;;;;;;;11.77;7.35;;;;;;;18.09;96.92;102206.63;4995261;28;20052;-47
2022/07/05 07:13:13;;;;;;;12.05;6.90;;;;;;;18.33;94.39;102202.94;4996683;28;20033;-45
2022/07/05 07:15:40;;;;;;;11.88;6.38;;;;;;;18.45;93.83;102208.78;4996121;28;20026;-44
2022/07/05 07:18:05;;;;;;;18.95;7.45;;;;;;;18.42;94.58;102209.13;4978493;28;20489;-46
2022/07/05 07:20:31;;;;;;;11.15;5.95;;;;;;;18.39;94.04;102204.09;4995753;28;20107;-46
2022/07/05 07:22:56;;;;;;;11.40;6.20;;;;;;;18.40;95.32;102214.72;4994627;28;20022;-47
2022/07/05 07:25:23;;;;;;;10.70;6.20;;;;;;;18.54;96.72;102214.97;4995302;28;20095;-48
2022/07/05 07:27:50;;;;;;;11.68;5.97;;;;;;;18.76;96.84;102210.56;4996217;28;20152;-46
2022/07/05 07:30:17;;;;;;;13.90;6.85;;;;;;;18.96;95.44;102211.78;4996561;28;20028;-47
2022/07/05 07:32:44;;;;;;;10.63;6.35;;;;;;;18.92;94.40;102215.84;5007662;28;20013;-47
2022/07/05 07:35:10;;;;;;;13.10;6.45;;;;;;;19.01;95.30;102220.19;4987838;28;20048;-49
2022/07/05 07:37:36;;;;;;;12.27;6.22;;;;;;;19.09;94.53;102219.25;5013990;28;20021;-46
2022/07/05 07:40:04;;;;;;;13.27;6.22;;;;;;;19.16;94.22;102224.78;5015211;28;20258;-46
2022/07/05 07:42:29;;;;;;;11.30;6.65;;;;;;;19.07;93.84;102215.91;5015573;28;20037;-46
2022/07/05 07:44:55;;;;;;;13.20;8.32;;;;;;;19.12;95.30;102218.88;5003940;28;20112;-46
2022/07/05 07:47:20;;;;;;;15.85;6.88;;;;;;;19.09;94.74;102224.66;5000141;28;20045;-46
2022/07/05 07:49:46;;;;;;;15.32;6.90;;;;;;;19.20;94.98;102226.94;4993962;28;20055;-46
2022/07/05 07:52:11;;;;;;;14.80;6.05;;;;;;;19.31;94.66;102222.94;4993443;28;20025;-47
2022/07/05 07:54:37;;;;;;;14.70;6.00;;;;;;;19.51;94.32;102225.09;4995618;28;20025;-46
2022/07/05 07:57:04;;;;;;;18.00;6.22;;;;;;;19.53;93.16;102225.75;5000520;28;20368;-46
2022/07/05 07:59:30;;;;;;;12.50;5.80;;;;;;;19.61;94.78;102225.66;4977980;28;20021;-46
2022/07/05 08:01:56;;;;;;;16.17;6.65;;;;;;;19.67;93.28;102230.34;4995737;28;20102;-45
2022/07/05 08:04:21;;;;;;;13.90;7.15;;;;;;;19.72;92.83;102222.47;4995452;28;20051;-46
2022/07/05 08:06:47;;;;;;;13.45;5.55;;;;;;;19.76;93.57;102228.41;4993357;28;20026;-47
2022/07/05 08:09:13;;;;;;;20.42;7.75;;;;;;;19.81;93.16;102225.97;4994657;28;20631;-46
2022/07/05 08:11:38;;;;;;;13.20;4.93;;;;;;;19.81;91.41;102238.69;4995349;28;20112;-48
2022/07/05 08:14:04;;;;;;;14.00;5.78;;;;;;;19.76;92.20;102239.25;4992000;28;20397;-48
2022/07/05 08:16:29;;;;;;;11.63;5.65;;;;;;;19.85;92.05;102235.38;4990374;28;20407;-48
2022/07/05 08:21:38;;;;;;;11.75;5.32;;;;;;;19.97;92.21;102229.50;4993729;28;20072;-49
2022/07/05 08:24:07;;;;;;;13.98;6.65;;;;;;;20.18;91.03;102243.09;4994971;28;20137;-49
2022/07/05 08:26:33;;;;;;;15.57;6.43;;;;;;;20.20;89.82;102230.19;4995402;28;20075;-45
2022/07/05 08:29:01;;;;;;;15.70;7.13;;;;;;;20.18;90.88;102234.09;4995923;28;20037;-48
2022/07/05 08:31:27;;;;;;;15.60;6.70;;;;;;;20.31;89.88;102226.13;4996948;28;20125;-45
2022/07/05 08:33:53;;;;;;;13.10;6.57;;;;;;;20.44;89.99;102234.41;4992922;28;20550;-46
2022/07/05 08:36:18;;;;;;;16.55;7.20;;;;;;;20.72;90.59;102225.50;4996870;28;20113;-47
2022/07/05 08:38:43;;;;;;;19.10;8.25;;;;;;;20.58;87.72;102234.53;5008560;28;20083;-47
2022/07/05 08:41:11;;;;;;;17.15;7.05;;;;;;;20.49;88.81;102228.41;5008503;28;20075;-46
2022/07/05 08:43:41;;;;;;;15.77;7.15;;;;;;;20.33;89.88;102226.75;5008085;28;20018;-49
2022/07/05 08:46:11;;;;;;;11.98;6.82;;;;;;;20.18;90.02;102221.41;5005648;28;20080;-50
2022/07/05 08:48:47;;;;;;;18.85;7.15;;;;;;;20.15;89.71;102223.66;4991396;28;20485;-50
2022/07/05 08:51:23;;;;;;;15.52;7.40;;;;;;;20.31;91.96;102215.25;4993179;28;20507;-49
2022/07/05 08:53:51;;;;;;;25.55;14.80;;;;;;;20.56;90.92;102213.03;4995397;28;20102;-48
2022/07/05 08:56:17;;;;;;;11.98;5.22;;;;;;;20.79;86.43;102215.56;5001022;28;20026;-47
2022/07/05 08:58:42;;;;;;;10.57;5.40;;;;;;;20.98;83.78;102219.47;4977458;28;20045;-46
2022/07/05 09:01:09;;;;;;;17.27;6.22;;;;;;;21.03;82.08;102216.19;4994165;28;20065;-47
2022/07/05 09:03:42;;;;;;;16.77;6.85;;;;;;;21.16;85.73;102227.13;4995127;28;20073;-49
2022/07/05 09:06:13;;;;;;;13.70;6.15;;;;;;;21.39;81.47;102224.16;4975288;28;20498;-48
2022/07/05 09:08:40;;;;;;;9.43;4.20;;;;;;;21.46;77.57;102228.81;4995021;28;20030;-47
2022/07/05 09:11:14;;;;;;;14.63;4.60;;;;;;;21.16;76.30;102223.56;4994705;28;20030;-48
2022/07/05 09:13:42;;;;;;;18.08;6.38;;;;;;;21.30;76.67;102229.94;4976396;28;20078;-49
2022/07/05 09:16:08;;;;;;;13.05;5.85;;;;;;;21.63;78.57;102229.34;4994761;28;20702;-47
2022/07/05 09:18:43;;;;;;;13.98;5.45;;;;;;;21.68;77.39;102224.97;4978550;28;20010;-48
2022/07/05 09:21:22;;;;;;;11.52;5.05;;;;;;;21.59;76.52;102223.47;4996640;28;20029;-48
2022/07/05 09:23:55;;;;;;;14.45;4.15;;;;;;;21.43;73.91;102228.16;4996178;28;20060;-47
2022/07/05 09:26:26;;;;;;;13.80;6.10;;;;;;;21.44;74.97;102231.72;4994810;28;20096;-45
2022/07/05 09:28:54;;;;;;;11.57;4.80;;;;;;;21.46;74.03;102226.09;4996886;28;20088;-47
2022/07/05 09:31:30;;;;;;;10.13;4.50;;;;;;;21.52;70.03;102230.72;4995035;28;20112;-47
2022/07/05 09:34:06;;;;;;;11.60;4.82;;;;;;;21.48;69.09;102240.34;5001578;28;20018;-48
2022/07/05 09:36:58;;;;;;;9.88;4.93;;;;;;;21.50;68.85;102233.66;5000730;28;20049;-48
2022/07/05 09:39:29;;;;;;;8.93;4.70;;;;;;;21.80;67.46;102234.22;4979032;28;20137;-47
2022/07/05 09:42:22;;;;;;;9.25;4.60;;;;;;;21.90;67.79;102239.28;5002121;28;20048;-48
2022/07/05 09:44:50;;;;;;;11.10;4.70;;;;;;;21.82;66.80;102234.03;5012490;28;20105;-47
2022/07/05 09:47:17;;;;;;;14.15;5.05;;;;;;;21.76;64.75;102232.97;4985784;28;20101;-47
2022/07/05 09:49:53;;;;;;;11.48;4.65;;;;;;;21.79;66.28;102237.16;4994834;28;20050;-47
2022/07/05 09:52:35;;;;;;;6.40;4.00;;;;;;;21.79;63.62;102232.56;4993514;28;20040;-48
2022/07/05 09:55:11;;;;;;;16.50;5.50;;;;;;;21.79;63.53;102237.16;4988851;28;20026;-47
2022/07/05 09:57:39;;;;;;;13.77;4.38;;;;;;;21.65;63.55;102238.97;4993474;28;20192;-48
2022/07/05 10:00:05;;;;;;;11.63;4.03;;;;;;;21.62;59.24;102225.75;4995091;28;20436;-49
2022/07/05 10:02:51;;;;;;;9.38;3.30;;;;;;;21.79;63.19;102223.53;4996918;28;20029;-47
2022/07/05 10:05:18;;;;;;;8.88;3.10;;;;;;;21.93;60.54;102224.47;4993027;28;20054;-49
2022/07/05 10:07:53;;;;;;;11.40;3.28;;;;;;;22.25;62.00;102220.19;4992542;28;20077;-48
2022/07/05 10:10:26;;;;;;;7.13;3.53;;;;;;;22.54;59.51;102215.44;4992279;28;20370;-49
2022/07/05 10:12:55;;;;;;;10.35;4.50;;;;;;;22.73;58.36;102222.78;4979432;28;20208;-47
2022/07/05 10:15:22;;;;;;;12.05;3.75;;;;;;;23.03;60.65;102224.22;4992548;28;20627;-48
2022/07/05 10:18:04;;;;;;;12.82;4.22;;;;;;;23.03;56.74;102225.09;4995840;28;20086;-46
2022/07/05 10:20:34;;;;;;;10.45;3.70;;;;;;;22.96;56.87;102234.31;4998204;28;20021;-47
2022/07/05 10:23:02;;;;;;;6.15;3.17;;;;;;;22.86;56.03;102227.41;4965694;28;20144;-47
2022/07/05 10:25:28;;;;;;;6.80;2.90;;;;;;;22.77;54.68;102225.91;4991509;28;20124;-46
2022/07/05 10:27:55;;;;;;;4.65;2.20;;;;;;;22.31;54.61;102224.81;4993880;28;20074;-48
2022/07/05 10:30:22;;;;;;;7.82;2.80;;;;;;;22.02;56.87;102222.41;4989467;28;20678;-47
2022/07/05 10:32:49;;;;;;;8.32;2.50;;;;;;;22.04;58.09;102225.75;4998239;28;20500;-49
2022/07/05 10:35:16;;;;;;;5.05;2.20;;;;;;;21.87;53.36;102219.81;4999153;28;20045;-47
2022/07/05 10:37:43;;;;;;;5.43;2.20;;;;;;;21.91;54.46;102227.38;4990807;28;20014;-49
2022/07/05 10:40:09;;;;;;;10.38;2.33;;;;;;;22.29;54.99;102221.47;5007136;28;20052;-50
2022/07/05 10:42:39;;;;;;;5.45;2.67;;;;;;;22.78;54.87;102221.34;5005394;28;20029;-46
2022/07/05 10:45:31;;;;;;;12.43;2.60;;;;;;;23.25;54.07;102222.16;4994701;28;20128;-49
2022/07/05 10:48:26;;;;;;;8.05;2.70;;;;;;;23.95;54.40;102224.28;4983023;28;20111;-48
2022/07/05 10:50:58;;;;;;;7.07;2.75;;;;;;;23.89;50.15;102219.69;4988658;28;20521;-48
2022/07/05 10:53:46;;;;;;;6.97;2.85;;;;;;;24.06;51.21;102223.59;4985648;28;20030;-49
2022/07/05 10:56:12;;;;;;;6.53;2.53;;;;;;;24.00;51.35;102222.56;4987566;28;20531;-48
2022/07/05 10:58:47;;;;;;;10.27;2.97;;;;;;;24.61;52.36;102230.41;4991776;28;20036;-47
2022/07/05 11:01:12;;;;;;;10.82;3.50;;;;;;;24.79;53.52;102233.22;4983948;28;20148;-48
2022/07/05 11:03:43;;;;;;;12.32;6.72;;;;;;;24.34;53.89;102223.22;4996358;28;20112;-51
2022/07/05 11:06:18;;;;;;;8.23;3.45;;;;;;;23.63;55.43;102227.72;5009428;28;20419;-47
2022/07/05 11:08:59;;;;;;;19.73;4.07;;;;;;;23.03;55.70;102225.09;5010866;28;20065;-49
2022/07/05 11:11:26;;;;;;;17.40;3.47;;;;;;;22.47;57.42;102229.06;5003479;28;20045;-47
2022/07/05 11:13:54;;;;;;;10.93;2.65;;;;;;;22.24;57.96;102226.66;4988713;28;20053;-47
2022/07/05 11:16:23;;;;;;;10.05;2.97;;;;;;;22.11;59.45;102237.50;4991126;28;20702;-48
2022/07/05 11:18:53;;;;;;;8.15;2.95;;;;;;;21.95;55.78;102233.25;4991207;28;20040;-49
2022/07/05 11:21:20;;;;;;;6.18;2.42;;;;;;;21.86;55.94;102238.03;4986028;28;20034;-52